Baltica — SNGH — position and weather

sailwx.info

Track history (hours):
 
Tides and Currents Weather Stations Pressure Air Temp Water Temp Dewpoint Dewpoint Depression Visibility Wind Speed Wind Dir Waves Ship Positions

Oceanographic research ship Baltica (Poland)

Detailed information on ship capabilities available from University of Delaware's Ocean Information Center.

Last reported at 2018-Jun-23 10:06 UTC. Time now 2018-Jun-24 09:17 UTC.
Position N 54°47' E 015°00'.

Length 41 m; beam 9 m.

Type: Fishing. MMSI: 261061000.

Date/timePositionNaut miles runAvg speedWind from/ knotsBaromVisibWave heightAir tempDewpointWater temp
2018-Jun-23 10:06N 54°47' E 015°00'0 0.8
2018-Jun-23 10:00N 54°47' E 015°00'10 4.0
2018-Jun-23 07:33N 54°53' E 015°15'1 7.9
2018-Jun-23 07:29N 54°53' E 015°15'4 5.5
2018-Jun-23 06:44N 54°57' E 015°15'4 6.0
2018-Jun-23 06:07N 54°58' E 015°22'8 4.1
2018-Jun-23 04:16N 55°04' E 015°30'2 7.9
2018-Jun-23 04:00N 55°06' E 015°30'2 3.7
2018-Jun-23 03:30N 55°07' E 015°30'2 4.8
2018-Jun-23 03:00N 55°09' E 015°27'4 8.1
2018-Jun-23 02:30N 55°13' E 015°23'4 8.0
2018-Jun-23 01:59N 55°16' E 015°19'2 3.5
2018-Jun-23 01:29N 55°17' E 015°17'1 2.6
2018-Jun-23 01:00N 55°17' E 015°20'5 7.9
2018-Jun-23 00:25N 55°17' E 015°28'1 3.1
2018-Jun-23 00:00N 55°17' E 015°30'10 0.8
2018-Jun-22 10:44N 55°28' E 015°29'4 8.4
2018-Jun-22 10:15N 55°27' E 015°22'2 8.3
2018-Jun-22 09:59N 55°27' E 015°18'2 4.6
2018-Jun-22 09:30N 55°27' E 015°14'1 1.2
2018-Jun-22 08:58N 55°28' E 015°15'1 1.5
2018-Jun-22 08:21N 55°27' E 015°15'2 3.2
2018-Jun-22 07:46N 55°25' E 015°16'2 7.4
2018-Jun-22 07:29N 55°23' E 015°17'4 7.6
2018-Jun-22 07:00N 55°19' E 015°18'3 5.0
2018-Jun-22 06:30N 55°17' E 015°17'1 2.9
2018-Jun-22 06:00N 55°15' E 015°17'2 3.0
2018-Jun-22 05:30N 55°14' E 015°17'2 3.5
2018-Jun-22 05:00N 55°12' E 015°17'3 5.7
2018-Jun-22 04:30N 55°09' E 015°16'2 3.6
2018-Jun-22 03:57N 55°07' E 015°15'0 0.1
2018-Jun-22 03:30N 55°08' E 015°15'0 0.1
2018-Jun-22 03:00N 55°07' E 015°15'1 1.1
2018-Jun-22 02:30N 55°07' E 015°16'0 0.7
2018-Jun-22 02:00N 55°07' E 015°15'1 2.6
2018-Jun-22 01:30N 55°09' E 015°15'4 7.5
2018-Jun-22 01:00N 55°12' E 015°12'4 8.4
2018-Jun-22 00:30N 55°14' E 015°06'4 8.2
2018-Jun-22 00:00N 55°16' E 015°00'1 2.0
2018-Jun-21 23:30N 55°17' E 015°00'2 3.9
2018-Jun-21 23:00N 55°19' E 015°00'4 7.1
2018-Jun-21 22:28N 55°23' E 015°00'4 6.7
2018-Jun-21 21:57N 55°27' E 015°00'1 2.1
2018-Jun-21 21:30N 55°27' E 015°01'0 0.5
2018-Jun-21 20:57N 55°27' E 015°01'0 0.6
2018-Jun-21 20:28N 55°27' E 015°00'3 6.2
2018-Jun-21 20:00N 55°27' E 014°55'4 8.4
2018-Jun-21 19:29N 55°28' E 014°47'1 2.2
2018-Jun-21 18:51N 55°28' E 014°45'3 6.3
2018-Jun-21 18:24N 55°30' E 014°45'4 8.0
2018-Jun-21 17:58N 55°34' E 014°45'4 3.4
2018-Jun-21 16:53N 55°37' E 014°46'8 4.3
2018-Jun-21 15:05N 55°37' E 014°60'9 7.4
2018-Jun-21 13:49N 55°37' E 015°16'  
2018-Jun-19 03:01N 55°35' E 018°28'0 8.4
2018-Jun-19 03:00N 55°35' E 018°28'7 7.7
2018-Jun-19 02:06N 55°31' E 018°37'1 7.8
2018-Jun-19 02:00N 55°31' E 018°39'2 2.9
2018-Jun-19 01:29N 55°29' E 018°40'4 8.3
2018-Jun-19 01:00N 55°25' E 018°38'4 7.6
2018-Jun-19 00:29N 55°21' E 018°38'2 3.5
2018-Jun-19 00:00N 55°20' E 018°40'0 0.3
2018-Jun-18 23:30N 55°20' E 018°40'0 0.7
2018-Jun-18 22:59N 55°20' E 018°40'10 5.1
2018-Jun-18 21:00N 55°10' E 018°40'5 6.6
2018-Jun-18 20:10N 55°09' E 018°50'1 8.1
2018-Jun-18 20:00N 55°09' E 018°52'15 4.9
2018-Jun-18 17:01N 54°59' E 019°11'3 8.0
2018-Jun-18 16:40N 54°56' E 019°13'2 8.0
2018-Jun-18 16:27N 54°55' E 019°14'5 8.0
2018-Jun-18 15:54N 54°51' E 019°17'1 3.2
2018-Jun-18 15:31N 54°50' E 019°18'1 1.3
2018-Jun-18 15:00N 54°50' E 019°19'0 0.3
2018-Jun-18 14:30N 54°50' E 019°19'3 6.8
2018-Jun-18 14:00N 54°47' E 019°17'4 7.7
2018-Jun-18 13:31N 54°43' E 019°14'4 7.7
2018-Jun-18 13:00N 54°40' E 019°11'4 7.7
2018-Jun-18 12:30N 54°36' E 019°09'1 1.4
2018-Jun-18 12:00N 54°36' E 019°08'0 0.6
2018-Jun-18 11:25N 54°36' E 019°08'2 4.8
2018-Jun-18 11:00N 54°34' E 019°07'4 7.9
2018-Jun-18 10:30N 54°30' E 019°04'4 7.6
2018-Jun-18 10:00N 54°27' E 019°02'2 3.4
2018-Jun-18 09:30N 54°25' E 019°01'0 0.7
2018-Jun-18 09:00N 54°26' E 019°01'0 0.7
2018-Jun-18 08:30N 54°26' E 019°00'2 4.6
2018-Jun-18 08:00N 54°27' E 018°56'4 8.1
2018-Jun-18 07:30N 54°29' E 018°51'4 7.9
2018-Jun-18 07:00N 54°31' E 018°46'4 7.7
2018-Jun-18 06:30N 54°32' E 018°39'3 6.3
2018-Jun-18 06:01N 54°31' E 018°34'0 0.6
2018-Jun-18 05:30N 54°31' E 018°33'0 0.1
2018-Jun-18 05:00N 54°31' E 018°33'0 0.0
2018-Jun-18 04:30N 54°31' E 018°33'0 0.0
2018-Jun-18 04:00N 54°31' E 018°33'0 0.0
2018-Jun-18 03:30N 54°31' E 018°33'0 0.0
2018-Jun-18 03:00N 54°31' E 018°33'0 0.0
2018-Jun-18 02:30N 54°31' E 018°33'0 0.0
2018-Jun-18 02:00N 54°31' E 018°33'0 0.1
2018-Jun-18 01:30N 54°31' E 018°33'0 0.1
2018-Jun-18 01:00N 54°31' E 018°33'0 0.0
2018-Jun-18 00:30N 54°31' E 018°33'0 0.0
2018-Jun-18 00:00N 54°31' E 018°33'0 0.0
2018-Jun-17 23:30N 54°31' E 018°33'0 0.0
2018-Jun-17 23:00N 54°31' E 018°33'0 0.1
2018-Jun-17 22:30N 54°31' E 018°33'0 0.1
2018-Jun-17 22:00N 54°31' E 018°33'0 0.0
2018-Jun-17 21:30N 54°31' E 018°33'0 0.0
2018-Jun-17 21:00N 54°31' E 018°33'0 0.0
2018-Jun-17 20:30N 54°31' E 018°33'0 0.0
2018-Jun-17 20:00N 54°31' E 018°33'0 0.0
2018-Jun-17 19:30N 54°31' E 018°33'0 0.0
2018-Jun-17 19:00N 54°31' E 018°33'0 0.0
2018-Jun-17 18:30N 54°31' E 018°33'0 0.0
2018-Jun-17 18:00N 54°31' E 018°33'0 0.0
2018-Jun-17 17:29N 54°31' E 018°33'0 0.0
2018-Jun-17 17:00N 54°31' E 018°33'0 0.0
2018-Jun-17 16:30N 54°31' E 018°33'0 0.0
2018-Jun-17 16:00N 54°31' E 018°33'0 0.0
2018-Jun-17 15:31N 54°31' E 018°33'0 0.0
2018-Jun-17 15:00N 54°31' E 018°33'0 0.0
2018-Jun-17 14:30N 54°31' E 018°33'0 0.0
2018-Jun-17 14:00N 54°31' E 018°33'0 0.0
2018-Jun-17 13:30N 54°31' E 018°33'0 0.1
2018-Jun-17 13:00N 54°31' E 018°33'0 0.1
2018-Jun-17 12:30N 54°31' E 018°33'0 0.0
2018-Jun-17 12:00N 54°31' E 018°33'0 0.0
2018-Jun-17 11:30N 54°31' E 018°33'0 0.0
2018-Jun-17 11:00N 54°31' E 018°33'0 0.0
2018-Jun-17 10:30N 54°31' E 018°33'0 0.1
2018-Jun-17 10:00N 54°31' E 018°33'0 0.1
2018-Jun-17 09:30N 54°31' E 018°33'0 0.0
2018-Jun-17 09:00N 54°31' E 018°33'0 0.0
2018-Jun-17 08:30N 54°31' E 018°33'0 0.0
2018-Jun-17 08:00N 54°31' E 018°33'0 0.0
2018-Jun-17 07:30N 54°31' E 018°33'0 0.0
2018-Jun-17 07:00N 54°31' E 018°33'0 0.0
2018-Jun-17 06:30N 54°31' E 018°33'0 0.0
2018-Jun-17 06:01N 54°31' E 018°33'0 0.0
2018-Jun-17 05:30N 54°31' E 018°33'0 0.0
2018-Jun-17 05:00N 54°31' E 018°33'0 0.0
2018-Jun-17 04:30N 54°31' E 018°33'0 0.0
2018-Jun-17 04:00N 54°31' E 018°33'0 0.0
2018-Jun-17 03:30N 54°31' E 018°33'0 0.0
2018-Jun-17 03:00N 54°31' E 018°33'0 0.0
2018-Jun-17 02:30N 54°31' E 018°33'0 0.0
2018-Jun-17 02:00N 54°31' E 018°33'0 0.0
2018-Jun-17 01:30N 54°31' E 018°33'0 0.0
2018-Jun-17 01:00N 54°31' E 018°33'0 0.0
2018-Jun-17 00:30N 54°31' E 018°33'0 0.0
2018-Jun-17 00:01N 54°31' E 018°33'0 0.0
2018-Jun-16 23:30N 54°31' E 018°33'0 0.0
2018-Jun-16 23:00N 54°31' E 018°33'0 0.0
2018-Jun-16 22:31N 54°31' E 018°33'0 0.0
2018-Jun-16 22:00N 54°31' E 018°33'0 0.0
2018-Jun-16 21:30N 54°31' E 018°33'0 0.0
2018-Jun-16 21:00N 54°31' E 018°33'0 0.0
2018-Jun-16 20:30N 54°31' E 018°33'0 0.0
2018-Jun-16 20:00N 54°31' E 018°33'0 0.0
2018-Jun-16 19:31N 54°31' E 018°33'0 0.0
2018-Jun-16 19:00N 54°31' E 018°33'0 0.0
2018-Jun-16 18:30N 54°31' E 018°33'0 0.0
2018-Jun-16 18:00N 54°31' E 018°33'0 0.0
2018-Jun-16 17:30N 54°31' E 018°33'0 0.0
2018-Jun-16 17:00N 54°31' E 018°33'0 0.0
2018-Jun-16 16:30N 54°31' E 018°33'0 0.0
2018-Jun-16 16:01N 54°31' E 018°33'0 0.0
2018-Jun-16 15:30N 54°31' E 018°33'0 0.0
2018-Jun-16 15:00N 54°31' E 018°33'0 0.0
2018-Jun-16 14:30N 54°31' E 018°33'0 0.0
2018-Jun-16 14:00N 54°31' E 018°33'0 0.0
2018-Jun-16 13:30N 54°31' E 018°33'0 0.0
2018-Jun-16 13:00N 54°31' E 018°33'0 0.0
2018-Jun-16 12:30N 54°31' E 018°33'0 0.0
2018-Jun-16 12:00N 54°31' E 018°33'0 0.0
2018-Jun-16 11:31N 54°31' E 018°33'0 0.0
2018-Jun-16 11:00N 54°31' E 018°33'0 0.0
2018-Jun-16 10:31N 54°31' E 018°33'0 0.0
2018-Jun-16 10:00N 54°31' E 018°33'0 0.0
2018-Jun-16 09:31N 54°31' E 018°33'0 0.0
2018-Jun-16 09:00N 54°31' E 018°33'0 0.0
2018-Jun-16 08:30N 54°31' E 018°33'0 0.0
2018-Jun-16 08:00N 54°31' E 018°33'0 0.0
2018-Jun-16 07:30N 54°31' E 018°33'0 0.0
2018-Jun-16 07:00N 54°31' E 018°33'0 0.0
2018-Jun-16 06:30N 54°31' E 018°33'0 0.0
2018-Jun-16 06:01N 54°31' E 018°33'0 0.0
2018-Jun-16 05:31N 54°31' E 018°33'0 0.0
2018-Jun-16 05:00N 54°31' E 018°33'0 0.0
2018-Jun-16 04:31N 54°31' E 018°33'0 0.0
2018-Jun-16 04:00N 54°31' E 018°33'0 0.0
2018-Jun-16 03:30N 54°31' E 018°33'0 0.0
2018-Jun-16 03:01N 54°31' E 018°33'0 0.0
2018-Jun-16 02:30N 54°31' E 018°33'0 0.0
2018-Jun-16 02:01N 54°31' E 018°33'0 0.0
2018-Jun-16 01:31N 54°31' E 018°33'0 0.0
2018-Jun-16 01:00N 54°31' E 018°33'0 0.0
2018-Jun-16 00:30N 54°31' E 018°33'0 0.0
2018-Jun-16 00:00N 54°31' E 018°33'0 0.0
2018-Jun-15 23:31N 54°31' E 018°33'0 0.0
2018-Jun-15 23:01N 54°31' E 018°33'0 0.0
2018-Jun-15 22:31N 54°31' E 018°33'0 0.0
2018-Jun-15 22:01N 54°31' E 018°33'0 0.1
2018-Jun-15 21:31N 54°31' E 018°33'0 0.1
2018-Jun-15 21:00N 54°31' E 018°33'0 0.0
2018-Jun-15 20:30N 54°31' E 018°33'0 0.0
2018-Jun-15 20:00N 54°31' E 018°33'0 0.0
2018-Jun-15 19:31N 54°31' E 018°33'0 0.0
2018-Jun-15 19:00N 54°31' E 018°33'0 0.0
2018-Jun-15 18:30N 54°31' E 018°33'0 0.0
2018-Jun-15 18:01N 54°31' E 018°33'0 0.0
2018-Jun-15 17:30N 54°31' E 018°33'0 0.0
2018-Jun-15 17:01N 54°31' E 018°33'0 0.0
2018-Jun-15 16:30N 54°31' E 018°33'0 0.1
2018-Jun-15 16:00N 54°31' E 018°33'0 0.1
2018-Jun-15 15:30N 54°31' E 018°33'0 0.0
2018-Jun-15 15:00N 54°31' E 018°33'0 0.0
2018-Jun-15 14:31N 54°31' E 018°33'0 0.0
2018-Jun-15 14:01N 54°31' E 018°33'0 0.0
2018-Jun-15 13:31N 54°31' E 018°33'0 0.0
2018-Jun-15 13:01N 54°31' E 018°33'0 0.0
2018-Jun-15 12:30N 54°31' E 018°33'0 0.0
2018-Jun-15 12:00N 54°31' E 018°33'0 0.0
2018-Jun-15 11:30N 54°31' E 018°33'0 0.0
2018-Jun-15 11:00N 54°31' E 018°33'0 0.0
2018-Jun-15 10:31N 54°31' E 018°33'0 0.0
2018-Jun-15 10:01N 54°31' E 018°33'0 0.0
2018-Jun-15 09:31N 54°31' E 018°33'0 0.0
2018-Jun-15 09:01N 54°31' E 018°33'0 0.0
2018-Jun-15 08:31N 54°31' E 018°33'0 0.0
2018-Jun-15 08:01N 54°31' E 018°33'0 0.0
2018-Jun-15 07:31N 54°31' E 018°33'0 0.0
2018-Jun-15 07:01N 54°31' E 018°33'0 0.0
2018-Jun-15 06:31N 54°31' E 018°33'0 0.0
2018-Jun-15 06:01N 54°31' E 018°33'0 0.1
2018-Jun-15 05:31N 54°31' E 018°33'0 0.1
2018-Jun-15 05:00N 54°31' E 018°33'0 0.0
2018-Jun-15 04:31N 54°31' E 018°33'0 0.0
2018-Jun-15 04:01N 54°31' E 018°33'0 0.0
2018-Jun-15 03:30N 54°31' E 018°33'0 0.0
2018-Jun-15 03:01N 54°31' E 018°33'0 0.0
2018-Jun-15 02:30N 54°31' E 018°33'0 0.0
2018-Jun-15 02:01N 54°31' E 018°33'0 0.0
2018-Jun-15 01:31N 54°31' E 018°33'0 0.0
2018-Jun-15 01:01N 54°31' E 018°33'0 0.0
2018-Jun-15 00:31N 54°31' E 018°33'0 0.0
2018-Jun-15 00:01N 54°31' E 018°33'0 0.0
2018-Jun-14 23:31N 54°31' E 018°33'0 0.0
2018-Jun-14 23:01N 54°31' E 018°33'0 0.0
2018-Jun-14 22:31N 54°31' E 018°33'0 0.0
2018-Jun-14 22:01N 54°31' E 018°33'0 0.0
2018-Jun-14 21:31N 54°31' E 018°33'0 0.0
2018-Jun-14 21:01N 54°31' E 018°33'0 0.0
2018-Jun-14 20:31N 54°31' E 018°33'0 0.1
2018-Jun-14 20:00N 54°31' E 018°33'0 0.1
2018-Jun-14 19:31N 54°31' E 018°33'0 0.0
2018-Jun-14 19:00N 54°31' E 018°33'0 0.0
2018-Jun-14 18:30N 54°31' E 018°33'0 0.0
2018-Jun-14 18:00N 54°31' E 018°33'0 0.0
2018-Jun-14 17:31N 54°31' E 018°33'0 0.0
2018-Jun-14 17:01N 54°31' E 018°33'0 0.1
2018-Jun-14 16:31N 54°31' E 018°33'0 0.1
2018-Jun-14 16:01N 54°31' E 018°33'0 0.0
2018-Jun-14 15:31N 54°31' E 018°33'0 0.0
2018-Jun-14 15:01N 54°31' E 018°33'0 0.0
2018-Jun-14 14:31N 54°31' E 018°33'0 0.0
2018-Jun-14 14:01N 54°31' E 018°33'0 0.1
2018-Jun-14 13:30N 54°31' E 018°33'0 0.1
2018-Jun-14 13:00N 54°31' E 018°33'0 0.0
2018-Jun-14 12:30N 54°31' E 018°33'0 0.0
2018-Jun-14 12:00N 54°31' E 018°33'0 0.0
2018-Jun-14 11:31N 54°31' E 018°33'0 0.0
2018-Jun-14 11:01N 54°31' E 018°33'0 0.0
2018-Jun-14 10:31N 54°31' E 018°33'0 0.0
2018-Jun-14 10:00N 54°31' E 018°33'0 0.0
2018-Jun-14 09:00N 54°31' E 018°33'0 0.0
2018-Jun-14 08:31N 54°31' E 018°33'0 0.0
2018-Jun-14 08:01N 54°31' E 018°33'0 0.0
2018-Jun-14 07:31N 54°31' E 018°33'0 0.0
2018-Jun-14 07:00N 54°31' E 018°33'0 0.0
2018-Jun-14 06:31N 54°31' E 018°33'0 0.0
2018-Jun-14 06:01N 54°31' E 018°33'0 0.0
2018-Jun-14 05:30N 54°31' E 018°33'0 0.0
2018-Jun-14 05:00N 54°31' E 018°33'0 0.0
2018-Jun-14 04:31N 54°31' E 018°33'0 0.0
2018-Jun-14 04:01N 54°31' E 018°33'0 0.0
2018-Jun-14 03:30N 54°31' E 018°33'0 0.0
2018-Jun-14 03:00N 54°31' E 018°33'0 0.0
2018-Jun-14 02:31N 54°31' E 018°33'0 0.0
2018-Jun-14 02:01N 54°31' E 018°33'0 0.0
2018-Jun-14 01:30N 54°31' E 018°33'0 0.0
2018-Jun-14 01:01N 54°31' E 018°33'0 0.0
2018-Jun-14 00:30N 54°31' E 018°33'0 0.0
2018-Jun-14 00:00N 54°31' E 018°33'0 0.0
2018-Jun-13 23:30N 54°31' E 018°33'0 0.0
2018-Jun-13 23:00N 54°31' E 018°33'0 0.0
2018-Jun-13 22:31N 54°31' E 018°33'0 0.0
2018-Jun-13 22:00N 54°31' E 018°33'0 0.0
2018-Jun-13 21:31N 54°31' E 018°33'0 0.0
2018-Jun-13 21:00N 54°31' E 018°33'0 0.0
2018-Jun-13 20:31N 54°31' E 018°33'0 0.0
2018-Jun-13 20:00N 54°31' E 018°33'0 0.0
2018-Jun-13 19:30N 54°31' E 018°33'0 0.0
2018-Jun-13 19:00N 54°31' E 018°33'0 0.0
2018-Jun-13 18:30N 54°31' E 018°33'0 0.0
2018-Jun-13 18:00N 54°31' E 018°33'0 0.0
2018-Jun-13 17:30N 54°31' E 018°33'0 0.0
2018-Jun-13 17:00N 54°31' E 018°33'0 0.0
2018-Jun-13 16:31N 54°31' E 018°33'0 0.0
2018-Jun-13 16:00N 54°31' E 018°33'0 0.0
2018-Jun-13 15:31N 54°31' E 018°33'0 0.0
2018-Jun-13 15:00N 54°31' E 018°33'0 0.0
2018-Jun-13 14:31N 54°31' E 018°33'0 0.0
2018-Jun-13 14:00N 54°31' E 018°33'0 0.0
2018-Jun-13 13:29N 54°31' E 018°33'0 0.0
2018-Jun-13 13:00N 54°31' E 018°33'0 0.0
2018-Jun-13 12:30N 54°31' E 018°33'0 0.0
2018-Jun-13 12:00N 54°31' E 018°33'0 0.0
2018-Jun-13 11:30N 54°31' E 018°33'0 0.0
2018-Jun-13 10:58N 54°31' E 018°33'0 0.0
2018-Jun-13 10:30N 54°31' E 018°33'  
Track history (hours):
 
Tides and Currents Weather Stations Pressure Air Temp Water Temp Dewpoint Dewpoint Depression Visibility Wind Speed Wind Dir Waves Ship Positions

Oceanographic research ship Baltica (Poland)

Detailed information on ship capabilities available from University of Delaware's Ocean Information Center.

Last reported at 2018-Jun-23 10:06 UTC. Time now 2018-Jun-24 09:17 UTC.
Position N 54°47' E 015°00'.

Length 41 m; beam 9 m.

Type: Fishing. MMSI: 261061000.

Date/timePositionNaut miles runAvg speedWind from/ knotsBaromVisibWave heightAir tempDewpointWater temp
2018-Jun-23 10:06N 54°47' E 015°00'0 0.8
2018-Jun-23 10:00N 54°47' E 015°00'10 4.0
2018-Jun-23 07:33N 54°53' E 015°15'1 7.9
2018-Jun-23 07:29N 54°53' E 015°15'4 5.5
2018-Jun-23 06:44N 54°57' E 015°15'4 6.0
2018-Jun-23 06:07N 54°58' E 015°22'8 4.1
2018-Jun-23 04:16N 55°04' E 015°30'2 7.9
2018-Jun-23 04:00N 55°06' E 015°30'2 3.7
2018-Jun-23 03:30N 55°07' E 015°30'2 4.8
2018-Jun-23 03:00N 55°09' E 015°27'4 8.1
2018-Jun-23 02:30N 55°13' E 015°23'4 8.0
2018-Jun-23 01:59N 55°16' E 015°19'2 3.5
2018-Jun-23 01:29N 55°17' E 015°17'1 2.6
2018-Jun-23 01:00N 55°17' E 015°20'5 7.9
2018-Jun-23 00:25N 55°17' E 015°28'1 3.1
2018-Jun-23 00:00N 55°17' E 015°30'10 0.8
2018-Jun-22 10:44N 55°28' E 015°29'4 8.4
2018-Jun-22 10:15N 55°27' E 015°22'2 8.3
2018-Jun-22 09:59N 55°27' E 015°18'2 4.6
2018-Jun-22 09:30N 55°27' E 015°14'1 1.2
2018-Jun-22 08:58N 55°28' E 015°15'1 1.5
2018-Jun-22 08:21N 55°27' E 015°15'2 3.2
2018-Jun-22 07:46N 55°25' E 015°16'2 7.4
2018-Jun-22 07:29N 55°23' E 015°17'4 7.6
2018-Jun-22 07:00N 55°19' E 015°18'3 5.0
2018-Jun-22 06:30N 55°17' E 015°17'1 2.9
2018-Jun-22 06:00N 55°15' E 015°17'2 3.0
2018-Jun-22 05:30N 55°14' E 015°17'2 3.5
2018-Jun-22 05:00N 55°12' E 015°17'3 5.7
2018-Jun-22 04:30N 55°09' E 015°16'2 3.6
2018-Jun-22 03:57N 55°07' E 015°15'0 0.1
2018-Jun-22 03:30N 55°08' E 015°15'0 0.1
2018-Jun-22 03:00N 55°07' E 015°15'1 1.1
2018-Jun-22 02:30N 55°07' E 015°16'0 0.7
2018-Jun-22 02:00N 55°07' E 015°15'1 2.6
2018-Jun-22 01:30N 55°09' E 015°15'4 7.5
2018-Jun-22 01:00N 55°12' E 015°12'4 8.4
2018-Jun-22 00:30N 55°14' E 015°06'4 8.2
2018-Jun-22 00:00N 55°16' E 015°00'1 2.0
2018-Jun-21 23:30N 55°17' E 015°00'2 3.9
2018-Jun-21 23:00N 55°19' E 015°00'4 7.1
2018-Jun-21 22:28N 55°23' E 015°00'4 6.7
2018-Jun-21 21:57N 55°27' E 015°00'1 2.1
2018-Jun-21 21:30N 55°27' E 015°01'0 0.5
2018-Jun-21 20:57N 55°27' E 015°01'0 0.6
2018-Jun-21 20:28N 55°27' E 015°00'3 6.2
2018-Jun-21 20:00N 55°27' E 014°55'4 8.4
2018-Jun-21 19:29N 55°28' E 014°47'1 2.2
2018-Jun-21 18:51N 55°28' E 014°45'3 6.3
2018-Jun-21 18:24N 55°30' E 014°45'4 8.0
2018-Jun-21 17:58N 55°34' E 014°45'4 3.4
2018-Jun-21 16:53N 55°37' E 014°46'8 4.3
2018-Jun-21 15:05N 55°37' E 014°60'9 7.4
2018-Jun-21 13:49N 55°37' E 015°16'  
2018-Jun-19 03:01N 55°35' E 018°28'0 8.4
2018-Jun-19 03:00N 55°35' E 018°28'7 7.7
2018-Jun-19 02:06N 55°31' E 018°37'1 7.8
2018-Jun-19 02:00N 55°31' E 018°39'2 2.9
2018-Jun-19 01:29N 55°29' E 018°40'4 8.3
2018-Jun-19 01:00N 55°25' E 018°38'4 7.6
2018-Jun-19 00:29N 55°21' E 018°38'2 3.5
2018-Jun-19 00:00N 55°20' E 018°40'0 0.3
2018-Jun-18 23:30N 55°20' E 018°40'0 0.7
2018-Jun-18 22:59N 55°20' E 018°40'10 5.1
2018-Jun-18 21:00N 55°10' E 018°40'5 6.6
2018-Jun-18 20:10N 55°09' E 018°50'1 8.1
2018-Jun-18 20:00N 55°09' E 018°52'15 4.9
2018-Jun-18 17:01N 54°59' E 019°11'3 8.0
2018-Jun-18 16:40N 54°56' E 019°13'2 8.0
2018-Jun-18 16:27N 54°55' E 019°14'5 8.0
2018-Jun-18 15:54N 54°51' E 019°17'1 3.2
2018-Jun-18 15:31N 54°50' E 019°18'1 1.3
2018-Jun-18 15:00N 54°50' E 019°19'0 0.3
2018-Jun-18 14:30N 54°50' E 019°19'3 6.8
2018-Jun-18 14:00N 54°47' E 019°17'4 7.7
2018-Jun-18 13:31N 54°43' E 019°14'4 7.7
2018-Jun-18 13:00N 54°40' E 019°11'4 7.7
2018-Jun-18 12:30N 54°36' E 019°09'1 1.4
2018-Jun-18 12:00N 54°36' E 019°08'0 0.6
2018-Jun-18 11:25N 54°36' E 019°08'2 4.8
2018-Jun-18 11:00N 54°34' E 019°07'4 7.9
2018-Jun-18 10:30N 54°30' E 019°04'4 7.6
2018-Jun-18 10:00N 54°27' E 019°02'2 3.4
2018-Jun-18 09:30N 54°25' E 019°01'0 0.7
2018-Jun-18 09:00N 54°26' E 019°01'0 0.7
2018-Jun-18 08:30N 54°26' E 019°00'2 4.6
2018-Jun-18 08:00N 54°27' E 018°56'4 8.1
2018-Jun-18 07:30N 54°29' E 018°51'4 7.9
2018-Jun-18 07:00N 54°31' E 018°46'4 7.7
2018-Jun-18 06:30N 54°32' E 018°39'3 6.3
2018-Jun-18 06:01N 54°31' E 018°34'0 0.6
2018-Jun-18 05:30N 54°31' E 018°33'0 0.1
2018-Jun-18 05:00N 54°31' E 018°33'0 0.0
2018-Jun-18 04:30N 54°31' E 018°33'0 0.0
2018-Jun-18 04:00N 54°31' E 018°33'0 0.0
2018-Jun-18 03:30N 54°31' E 018°33'0 0.0
2018-Jun-18 03:00N 54°31' E 018°33'0 0.0
2018-Jun-18 02:30N 54°31' E 018°33'0 0.0
2018-Jun-18 02:00N 54°31' E 018°33'0 0.1
2018-Jun-18 01:30N 54°31' E 018°33'0 0.1
2018-Jun-18 01:00N 54°31' E 018°33'0 0.0
2018-Jun-18 00:30N 54°31' E 018°33'0 0.0
2018-Jun-18 00:00N 54°31' E 018°33'0 0.0
2018-Jun-17 23:30N 54°31' E 018°33'0 0.0
2018-Jun-17 23:00N 54°31' E 018°33'0 0.1
2018-Jun-17 22:30N 54°31' E 018°33'0 0.1
2018-Jun-17 22:00N 54°31' E 018°33'0 0.0
2018-Jun-17 21:30N 54°31' E 018°33'0 0.0
2018-Jun-17 21:00N 54°31' E 018°33'0 0.0
2018-Jun-17 20:30N 54°31' E 018°33'0 0.0
2018-Jun-17 20:00N 54°31' E 018°33'0 0.0
2018-Jun-17 19:30N 54°31' E 018°33'0 0.0
2018-Jun-17 19:00N 54°31' E 018°33'0 0.0
2018-Jun-17 18:30N 54°31' E 018°33'0 0.0
2018-Jun-17 18:00N 54°31' E 018°33'0 0.0
2018-Jun-17 17:29N 54°31' E 018°33'0 0.0
2018-Jun-17 17:00N 54°31' E 018°33'0 0.0
2018-Jun-17 16:30N 54°31' E 018°33'0 0.0
2018-Jun-17 16:00N 54°31' E 018°33'0 0.0
2018-Jun-17 15:31N 54°31' E 018°33'0 0.0
2018-Jun-17 15:00N 54°31' E 018°33'0 0.0
2018-Jun-17 14:30N 54°31' E 018°33'0 0.0
2018-Jun-17 14:00N 54°31' E 018°33'0 0.0
2018-Jun-17 13:30N 54°31' E 018°33'0 0.1
2018-Jun-17 13:00N 54°31' E 018°33'0 0.1
2018-Jun-17 12:30N 54°31' E 018°33'0 0.0
2018-Jun-17 12:00N 54°31' E 018°33'0 0.0
2018-Jun-17 11:30N 54°31' E 018°33'0 0.0
2018-Jun-17 11:00N 54°31' E 018°33'0 0.0
2018-Jun-17 10:30N 54°31' E 018°33'0 0.1
2018-Jun-17 10:00N 54°31' E 018°33'0 0.1
2018-Jun-17 09:30N 54°31' E 018°33'0 0.0
2018-Jun-17 09:00N 54°31' E 018°33'0 0.0
2018-Jun-17 08:30N 54°31' E 018°33'0 0.0
2018-Jun-17 08:00N 54°31' E 018°33'0 0.0
2018-Jun-17 07:30N 54°31' E 018°33'0 0.0
2018-Jun-17 07:00N 54°31' E 018°33'0 0.0
2018-Jun-17 06:30N 54°31' E 018°33'0 0.0
2018-Jun-17 06:01N 54°31' E 018°33'0 0.0
2018-Jun-17 05:30N 54°31' E 018°33'0 0.0
2018-Jun-17 05:00N 54°31' E 018°33'0 0.0
2018-Jun-17 04:30N 54°31' E 018°33'0 0.0
2018-Jun-17 04:00N 54°31' E 018°33'0 0.0
2018-Jun-17 03:30N 54°31' E 018°33'0 0.0
2018-Jun-17 03:00N 54°31' E 018°33'0 0.0
2018-Jun-17 02:30N 54°31' E 018°33'0 0.0
2018-Jun-17 02:00N 54°31' E 018°33'0 0.0
2018-Jun-17 01:30N 54°31' E 018°33'0 0.0
2018-Jun-17 01:00N 54°31' E 018°33'0 0.0
2018-Jun-17 00:30N 54°31' E 018°33'0 0.0
2018-Jun-17 00:01N 54°31' E 018°33'0 0.0
2018-Jun-16 23:30N 54°31' E 018°33'0 0.0
2018-Jun-16 23:00N 54°31' E 018°33'0 0.0
2018-Jun-16 22:31N 54°31' E 018°33'0 0.0
2018-Jun-16 22:00N 54°31' E 018°33'0 0.0
2018-Jun-16 21:30N 54°31' E 018°33'0 0.0
2018-Jun-16 21:00N 54°31' E 018°33'0 0.0
2018-Jun-16 20:30N 54°31' E 018°33'0 0.0
2018-Jun-16 20:00N 54°31' E 018°33'0 0.0
2018-Jun-16 19:31N 54°31' E 018°33'0 0.0
2018-Jun-16 19:00N 54°31' E 018°33'0 0.0
2018-Jun-16 18:30N 54°31' E 018°33'0 0.0
2018-Jun-16 18:00N 54°31' E 018°33'0 0.0
2018-Jun-16 17:30N 54°31' E 018°33'0 0.0
2018-Jun-16 17:00N 54°31' E 018°33'0 0.0
2018-Jun-16 16:30N 54°31' E 018°33'0 0.0
2018-Jun-16 16:01N 54°31' E 018°33'0 0.0
2018-Jun-16 15:30N 54°31' E 018°33'0 0.0
2018-Jun-16 15:00N 54°31' E 018°33'0 0.0
2018-Jun-16 14:30N 54°31' E 018°33'0 0.0
2018-Jun-16 14:00N 54°31' E 018°33'0 0.0
2018-Jun-16 13:30N 54°31' E 018°33'0 0.0
2018-Jun-16 13:00N 54°31' E 018°33'0 0.0
2018-Jun-16 12:30N 54°31' E 018°33'0 0.0
2018-Jun-16 12:00N 54°31' E 018°33'0 0.0
2018-Jun-16 11:31N 54°31' E 018°33'0 0.0
2018-Jun-16 11:00N 54°31' E 018°33'0 0.0
2018-Jun-16 10:31N 54°31' E 018°33'0 0.0
2018-Jun-16 10:00N 54°31' E 018°33'0 0.0
2018-Jun-16 09:31N 54°31' E 018°33'0 0.0
2018-Jun-16 09:00N 54°31' E 018°33'0 0.0
2018-Jun-16 08:30N 54°31' E 018°33'0 0.0
2018-Jun-16 08:00N 54°31' E 018°33'0 0.0
2018-Jun-16 07:30N 54°31' E 018°33'0 0.0
2018-Jun-16 07:00N 54°31' E 018°33'0 0.0
2018-Jun-16 06:30N 54°31' E 018°33'0 0.0
2018-Jun-16 06:01N 54°31' E 018°33'0 0.0
2018-Jun-16 05:31N 54°31' E 018°33'0 0.0
2018-Jun-16 05:00N 54°31' E 018°33'0 0.0
2018-Jun-16 04:31N 54°31' E 018°33'0 0.0
2018-Jun-16 04:00N 54°31' E 018°33'0 0.0
2018-Jun-16 03:30N 54°31' E 018°33'0 0.0
2018-Jun-16 03:01N 54°31' E 018°33'0 0.0
2018-Jun-16 02:30N 54°31' E 018°33'0 0.0
2018-Jun-16 02:01N 54°31' E 018°33'0 0.0
2018-Jun-16 01:31N 54°31' E 018°33'0 0.0
2018-Jun-16 01:00N 54°31' E 018°33'0 0.0
2018-Jun-16 00:30N 54°31' E 018°33'0 0.0
2018-Jun-16 00:00N 54°31' E 018°33'0 0.0
2018-Jun-15 23:31N 54°31' E 018°33'0 0.0
2018-Jun-15 23:01N 54°31' E 018°33'0 0.0
2018-Jun-15 22:31N 54°31' E 018°33'0 0.0
2018-Jun-15 22:01N 54°31' E 018°33'0 0.1
2018-Jun-15 21:31N 54°31' E 018°33'0 0.1
2018-Jun-15 21:00N 54°31' E 018°33'0 0.0
2018-Jun-15 20:30N 54°31' E 018°33'0 0.0
2018-Jun-15 20:00N 54°31' E 018°33'0 0.0
2018-Jun-15 19:31N 54°31' E 018°33'0 0.0
2018-Jun-15 19:00N 54°31' E 018°33'0 0.0
2018-Jun-15 18:30N 54°31' E 018°33'0 0.0
2018-Jun-15 18:01N 54°31' E 018°33'0 0.0
2018-Jun-15 17:30N 54°31' E 018°33'0 0.0
2018-Jun-15 17:01N 54°31' E 018°33'0 0.0
2018-Jun-15 16:30N 54°31' E 018°33'0 0.1
2018-Jun-15 16:00N 54°31' E 018°33'0 0.1
2018-Jun-15 15:30N 54°31' E 018°33'0 0.0
2018-Jun-15 15:00N 54°31' E 018°33'0 0.0
2018-Jun-15 14:31N 54°31' E 018°33'0 0.0
2018-Jun-15 14:01N 54°31' E 018°33'0 0.0
2018-Jun-15 13:31N 54°31' E 018°33'0 0.0
2018-Jun-15 13:01N 54°31' E 018°33'0 0.0
2018-Jun-15 12:30N 54°31' E 018°33'0 0.0
2018-Jun-15 12:00N 54°31' E 018°33'0 0.0
2018-Jun-15 11:30N 54°31' E 018°33'0 0.0
2018-Jun-15 11:00N 54°31' E 018°33'0 0.0
2018-Jun-15 10:31N 54°31' E 018°33'0 0.0
2018-Jun-15 10:01N 54°31' E 018°33'0 0.0
2018-Jun-15 09:31N 54°31' E 018°33'0 0.0
2018-Jun-15 09:01N 54°31' E 018°33'0 0.0
2018-Jun-15 08:31N 54°31' E 018°33'0 0.0
2018-Jun-15 08:01N 54°31' E 018°33'0 0.0
2018-Jun-15 07:31N 54°31' E 018°33'0 0.0
2018-Jun-15 07:01N 54°31' E 018°33'0 0.0
2018-Jun-15 06:31N 54°31' E 018°33'0 0.0
2018-Jun-15 06:01N 54°31' E 018°33'0 0.1
2018-Jun-15 05:31N 54°31' E 018°33'0 0.1
2018-Jun-15 05:00N 54°31' E 018°33'0 0.0
2018-Jun-15 04:31N 54°31' E 018°33'0 0.0
2018-Jun-15 04:01N 54°31' E 018°33'0 0.0
2018-Jun-15 03:30N 54°31' E 018°33'0 0.0
2018-Jun-15 03:01N 54°31' E 018°33'0 0.0
2018-Jun-15 02:30N 54°31' E 018°33'0 0.0
2018-Jun-15 02:01N 54°31' E 018°33'0 0.0
2018-Jun-15 01:31N 54°31' E 018°33'0 0.0
2018-Jun-15 01:01N 54°31' E 018°33'0 0.0
2018-Jun-15 00:31N 54°31' E 018°33'0 0.0
2018-Jun-15 00:01N 54°31' E 018°33'0 0.0
2018-Jun-14 23:31N 54°31' E 018°33'0 0.0
2018-Jun-14 23:01N 54°31' E 018°33'0 0.0
2018-Jun-14 22:31N 54°31' E 018°33'0 0.0
2018-Jun-14 22:01N 54°31' E 018°33'0 0.0
2018-Jun-14 21:31N 54°31' E 018°33'0 0.0
2018-Jun-14 21:01N 54°31' E 018°33'0 0.0
2018-Jun-14 20:31N 54°31' E 018°33'0 0.1
2018-Jun-14 20:00N 54°31' E 018°33'0 0.1
2018-Jun-14 19:31N 54°31' E 018°33'0 0.0
2018-Jun-14 19:00N 54°31' E 018°33'0 0.0
2018-Jun-14 18:30N 54°31' E 018°33'0 0.0
2018-Jun-14 18:00N 54°31' E 018°33'0 0.0
2018-Jun-14 17:31N 54°31' E 018°33'0 0.0
2018-Jun-14 17:01N 54°31' E 018°33'0 0.1
2018-Jun-14 16:31N 54°31' E 018°33'0 0.1
2018-Jun-14 16:01N 54°31' E 018°33'0 0.0
2018-Jun-14 15:31N 54°31' E 018°33'0 0.0
2018-Jun-14 15:01N 54°31' E 018°33'0 0.0
2018-Jun-14 14:31N 54°31' E 018°33'0 0.0
2018-Jun-14 14:01N 54°31' E 018°33'0 0.1
2018-Jun-14 13:30N 54°31' E 018°33'0 0.1
2018-Jun-14 13:00N 54°31' E 018°33'0 0.0
2018-Jun-14 12:30N 54°31' E 018°33'0 0.0
2018-Jun-14 12:00N 54°31' E 018°33'0 0.0
2018-Jun-14 11:31N 54°31' E 018°33'0 0.0
2018-Jun-14 11:01N 54°31' E 018°33'0 0.0
2018-Jun-14 10:31N 54°31' E 018°33'0 0.0
2018-Jun-14 10:00N 54°31' E 018°33'0 0.0
2018-Jun-14 09:00N 54°31' E 018°33'0 0.0
2018-Jun-14 08:31N 54°31' E 018°33'0 0.0
2018-Jun-14 08:01N 54°31' E 018°33'0 0.0
2018-Jun-14 07:31N 54°31' E 018°33'0 0.0
2018-Jun-14 07:00N 54°31' E 018°33'0 0.0
2018-Jun-14 06:31N 54°31' E 018°33'0 0.0
2018-Jun-14 06:01N 54°31' E 018°33'0 0.0
2018-Jun-14 05:30N 54°31' E 018°33'0 0.0
2018-Jun-14 05:00N 54°31' E 018°33'0 0.0
2018-Jun-14 04:31N 54°31' E 018°33'0 0.0
2018-Jun-14 04:01N 54°31' E 018°33'0 0.0
2018-Jun-14 03:30N 54°31' E 018°33'0 0.0
2018-Jun-14 03:00N 54°31' E 018°33'0 0.0
2018-Jun-14 02:31N 54°31' E 018°33'0 0.0
2018-Jun-14 02:01N 54°31' E 018°33'0 0.0
2018-Jun-14 01:30N 54°31' E 018°33'0 0.0
2018-Jun-14 01:01N 54°31' E 018°33'0 0.0
2018-Jun-14 00:30N 54°31' E 018°33'0 0.0
2018-Jun-14 00:00N 54°31' E 018°33'0 0.0
2018-Jun-13 23:30N 54°31' E 018°33'0 0.0
2018-Jun-13 23:00N 54°31' E 018°33'0 0.0
2018-Jun-13 22:31N 54°31' E 018°33'0 0.0
2018-Jun-13 22:00N 54°31' E 018°33'0 0.0
2018-Jun-13 21:31N 54°31' E 018°33'0 0.0
2018-Jun-13 21:00N 54°31' E 018°33'0 0.0
2018-Jun-13 20:31N 54°31' E 018°33'0 0.0
2018-Jun-13 20:00N 54°31' E 018°33'0 0.0
2018-Jun-13 19:30N 54°31' E 018°33'0 0.0
2018-Jun-13 19:00N 54°31' E 018°33'0 0.0
2018-Jun-13 18:30N 54°31' E 018°33'0 0.0
2018-Jun-13 18:00N 54°31' E 018°33'0 0.0
2018-Jun-13 17:30N 54°31' E 018°33'0 0.0
2018-Jun-13 17:00N 54°31' E 018°33'0 0.0
2018-Jun-13 16:31N 54°31' E 018°33'0 0.0
2018-Jun-13 16:00N 54°31' E 018°33'0 0.0
2018-Jun-13 15:31N 54°31' E 018°33'0 0.0
2018-Jun-13 15:00N 54°31' E 018°33'0 0.0
2018-Jun-13 14:31N 54°31' E 018°33'0 0.0
2018-Jun-13 14:00N 54°31' E 018°33'0 0.0
2018-Jun-13 13:29N 54°31' E 018°33'0 0.0
2018-Jun-13 13:00N 54°31' E 018°33'0 0.0
2018-Jun-13 12:30N 54°31' E 018°33'0 0.0
2018-Jun-13 12:00N 54°31' E 018°33'0 0.0
2018-Jun-13 11:30N 54°31' E 018°33'0 0.0
2018-Jun-13 10:58N 54°31' E 018°33'0 0.0
2018-Jun-13 10:30N 54°31' E 018°33'  

Dump ship's entire track history